sensor_id;sensor_type;location;lat;lon;timestamp;P1;durP1;ratioP1;P2;durP2;ratioP2
17714;SDS011;8977;50.902;4.314;2022-10-18T00:00:05;6.13;;;5.38;;
17714;SDS011;8977;50.902;4.314;2022-10-18T00:02:33;6.47;;;5.88;;
17714;SDS011;8977;50.902;4.314;2022-10-18T00:04:59;9.05;;;5.45;;
17714;SDS011;8977;50.902;4.314;2022-10-18T00:07:27;6.22;;;5.63;;
17714;SDS011;8977;50.902;4.314;2022-10-18T00:09:54;7.85;;;5.43;;
17714;SDS011;8977;50.902;4.314;2022-10-18T00:12:21;6.78;;;5.75;;
17714;SDS011;8977;50.902;4.314;2022-10-18T00:14:48;6.25;;;5.65;;
17714;SDS011;8977;50.902;4.314;2022-10-18T00:17:17;7.88;;;5.43;;
17714;SDS011;8977;50.902;4.314;2022-10-18T00:19:44;9.45;;;5.57;;
17714;SDS011;8977;50.902;4.314;2022-10-18T00:22:12;7.47;;;5.80;;
17714;SDS011;8977;50.902;4.314;2022-10-18T00:24:39;6.25;;;5.53;;
17714;SDS011;8977;50.902;4.314;2022-10-18T00:27:07;9.38;;;5.35;;
17714;SDS011;8977;50.902;4.314;2022-10-18T00:29:33;5.72;;;5.22;;
17714;SDS011;8977;50.902;4.314;2022-10-18T00:32:00;6.13;;;5.53;;
17714;SDS011;8977;50.902;4.314;2022-10-18T00:34:29;6.43;;;5.82;;
17714;SDS011;8977;50.902;4.314;2022-10-18T00:36:56;7.07;;;5.63;;
17714;SDS011;8977;50.902;4.314;2022-10-18T00:39:23;6.57;;;5.80;;
17714;SDS011;8977;50.902;4.314;2022-10-18T00:41:50;6.03;;;5.43;;
17714;SDS011;8977;50.902;4.314;2022-10-18T00:47:36;6.43;;;5.55;;
17714;SDS011;8977;50.902;4.314;2022-10-18T00:50:05;8.13;;;6.00;;
17714;SDS011;8977;50.902;4.314;2022-10-18T00:52:34;9.35;;;5.60;;
17714;SDS011;8977;50.902;4.314;2022-10-18T00:55:04;7.80;;;5.63;;
17714;SDS011;8977;50.902;4.314;2022-10-18T00:57:31;6.80;;;6.10;;
17714;SDS011;8977;50.902;4.314;2022-10-18T00:59:59;8.50;;;5.72;;
17714;SDS011;8977;50.902;4.314;2022-10-18T01:02:26;6.05;;;5.03;;
17714;SDS011;8977;50.902;4.314;2022-10-18T01:04:53;5.68;;;5.15;;
17714;SDS011;8977;50.902;4.314;2022-10-18T01:07:32;7.30;;;5.43;;
17714;SDS011;8977;50.902;4.314;2022-10-18T01:10:17;6.43;;;5.55;;
17714;SDS011;8977;50.902;4.314;2022-10-18T01:12:55;6.65;;;5.95;;
17714;SDS011;8977;50.902;4.314;2022-10-18T01:15:39;9.45;;;6.30;;
17714;SDS011;8977;50.902;4.314;2022-10-18T01:18:15;9.50;;;6.00;;
17714;SDS011;8977;50.902;4.314;2022-10-18T01:23:44;6.55;;;5.90;;
17714;SDS011;8977;50.902;4.314;2022-10-18T01:26:29;7.55;;;6.50;;
17714;SDS011;8977;50.902;4.314;2022-10-18T01:29:09;7.93;;;6.18;;
17714;SDS011;8977;50.902;4.314;2022-10-18T01:31:45;7.25;;;6.22;;
17714;SDS011;8977;50.902;4.314;2022-10-18T01:34:15;7.05;;;6.30;;
17714;SDS011;8977;50.902;4.314;2022-10-18T01:36:45;7.40;;;6.10;;
17714;SDS011;8977;50.902;4.314;2022-10-18T01:39:15;7.82;;;6.70;;
17714;SDS011;8977;50.902;4.314;2022-10-18T01:41:45;7.53;;;6.63;;
17714;SDS011;8977;50.902;4.314;2022-10-18T01:44:16;7.28;;;6.43;;
17714;SDS011;8977;50.902;4.314;2022-10-18T01:46:47;7.07;;;6.38;;
17714;SDS011;8977;50.902;4.314;2022-10-18T01:49:17;9.05;;;7.15;;
17714;SDS011;8977;50.902;4.314;2022-10-18T01:51:43;7.10;;;6.40;;
17714;SDS011;8977;50.902;4.314;2022-10-18T01:54:11;7.65;;;6.22;;
17714;SDS011;8977;50.902;4.314;2022-10-18T01:56:43;9.43;;;6.80;;
17714;SDS011;8977;50.902;4.314;2022-10-18T01:59:23;8.90;;;6.50;;
17714;SDS011;8977;50.902;4.314;2022-10-18T02:02:04;9.50;;;6.85;;
17714;SDS011;8977;50.902;4.314;2022-10-18T02:04:39;7.97;;;6.90;;
17714;SDS011;8977;50.902;4.314;2022-10-18T02:07:14;7.93;;;6.90;;
17714;SDS011;8977;50.902;4.314;2022-10-18T02:09:50;8.38;;;6.85;;
17714;SDS011;8977;50.902;4.314;2022-10-18T02:12:23;8.18;;;6.57;;
17714;SDS011;8977;50.902;4.314;2022-10-18T02:14:51;10.07;;;6.38;;
17714;SDS011;8977;50.902;4.314;2022-10-18T02:17:20;8.10;;;7.32;;
17714;SDS011;8977;50.902;4.314;2022-10-18T02:19:49;9.77;;;6.60;;
17714;SDS011;8977;50.902;4.314;2022-10-18T02:22:19;7.45;;;5.93;;
17714;SDS011;8977;50.902;4.314;2022-10-18T02:24:48;8.50;;;6.43;;
17714;SDS011;8977;50.902;4.314;2022-10-18T02:27:18;7.20;;;6.55;;
17714;SDS011;8977;50.902;4.314;2022-10-18T02:29:46;8.65;;;6.80;;
17714;SDS011;8977;50.902;4.314;2022-10-18T02:32:15;6.80;;;6.18;;
17714;SDS011;8977;50.902;4.314;2022-10-18T02:34:48;7.53;;;5.93;;
17714;SDS011;8977;50.902;4.314;2022-10-18T02:37:23;7.50;;;6.25;;
17714;SDS011;8977;50.902;4.314;2022-10-18T02:39:53;6.93;;;6.20;;
17714;SDS011;8977;50.902;4.314;2022-10-18T02:42:20;8.25;;;6.68;;
17714;SDS011;8977;50.902;4.314;2022-10-18T02:44:47;7.22;;;6.50;;
17714;SDS011;8977;50.902;4.314;2022-10-18T02:47:14;8.10;;;6.43;;
17714;SDS011;8977;50.902;4.314;2022-10-18T02:49:41;10.50;;;6.85;;
17714;SDS011;8977;50.902;4.314;2022-10-18T02:52:09;8.52;;;7.20;;
17714;SDS011;8977;50.902;4.314;2022-10-18T02:54:36;8.80;;;6.45;;
17714;SDS011;8977;50.902;4.314;2022-10-18T02:57:03;10.25;;;7.47;;
17714;SDS011;8977;50.902;4.314;2022-10-18T02:59:30;7.40;;;6.50;;
17714;SDS011;8977;50.902;4.314;2022-10-18T03:01:57;7.35;;;6.32;;
17714;SDS011;8977;50.902;4.314;2022-10-18T03:04:23;10.45;;;7.07;;
17714;SDS011;8977;50.902;4.314;2022-10-18T03:06:50;10.43;;;7.05;;
17714;SDS011;8977;50.902;4.314;2022-10-18T03:09:18;8.63;;;6.97;;
17714;SDS011;8977;50.902;4.314;2022-10-18T03:11:45;9.13;;;7.50;;
17714;SDS011;8977;50.902;4.314;2022-10-18T03:14:12;11.57;;;7.93;;
17714;SDS011;8977;50.902;4.314;2022-10-18T03:16:39;9.20;;;7.55;;
17714;SDS011;8977;50.902;4.314;2022-10-18T03:19:07;11.00;;;8.07;;
17714;SDS011;8977;50.902;4.314;2022-10-18T03:21:34;9.35;;;8.10;;
17714;SDS011;8977;50.902;4.314;2022-10-18T03:24:01;8.63;;;7.82;;
17714;SDS011;8977;50.902;4.314;2022-10-18T03:26:30;11.75;;;8.32;;
17714;SDS011;8977;50.902;4.314;2022-10-18T03:28:56;11.35;;;8.93;;
17714;SDS011;8977;50.902;4.314;2022-10-18T03:31:23;9.98;;;8.93;;
17714;SDS011;8977;50.902;4.314;2022-10-18T03:33:50;12.13;;;9.88;;
17714;SDS011;8977;50.902;4.314;2022-10-18T03:36:17;11.80;;;10.60;;
17714;SDS011;8977;50.902;4.314;2022-10-18T03:38:45;14.43;;;10.85;;
17714;SDS011;8977;50.902;4.314;2022-10-18T03:41:12;12.20;;;10.23;;
17714;SDS011;8977;50.902;4.314;2022-10-18T03:43:40;13.63;;;10.75;;
17714;SDS011;8977;50.902;4.314;2022-10-18T03:46:07;16.40;;;11.70;;
17714;SDS011;8977;50.902;4.314;2022-10-18T03:48:34;16.42;;;11.40;;
17714;SDS011;8977;50.902;4.314;2022-10-18T03:51:00;14.13;;;11.88;;
17714;SDS011;8977;50.902;4.314;2022-10-18T03:53:27;14.23;;;12.40;;
17714;SDS011;8977;50.902;4.314;2022-10-18T03:55:54;15.27;;;12.05;;
17714;SDS011;8977;50.902;4.314;2022-10-18T03:58:22;15.85;;;12.00;;
17714;SDS011;8977;50.902;4.314;2022-10-18T04:00:51;19.95;;;13.60;;
17714;SDS011;8977;50.902;4.314;2022-10-18T04:03:19;14.52;;;13.02;;
17714;SDS011;8977;50.902;4.314;2022-10-18T04:05:47;19.55;;;13.23;;
17714;SDS011;8977;50.902;4.314;2022-10-18T04:08:15;17.90;;;13.32;;
17714;SDS011;8977;50.902;4.314;2022-10-18T04:10:42;16.65;;;13.20;;
17714;SDS011;8977;50.902;4.314;2022-10-18T04:13:10;15.38;;;13.35;;
17714;SDS011;8977;50.902;4.314;2022-10-18T04:15:37;15.13;;;13.55;;
17714;SDS011;8977;50.902;4.314;2022-10-18T04:18:05;15.70;;;13.85;;
17714;SDS011;8977;50.902;4.314;2022-10-18T04:20:32;16.40;;;13.55;;
17714;SDS011;8977;50.902;4.314;2022-10-18T04:22:59;15.85;;;14.18;;
17714;SDS011;8977;50.902;4.314;2022-10-18T04:25:26;18.10;;;13.82;;
17714;SDS011;8977;50.902;4.314;2022-10-18T04:27:53;16.08;;;13.20;;
17714;SDS011;8977;50.902;4.314;2022-10-18T04:30:20;15.32;;;13.65;;
17714;SDS011;8977;50.902;4.314;2022-10-18T04:32:47;16.48;;;13.52;;
17714;SDS011;8977;50.902;4.314;2022-10-18T04:35:15;15.25;;;12.98;;
17714;SDS011;8977;50.902;4.314;2022-10-18T04:37:42;16.35;;;13.77;;
17714;SDS011;8977;50.902;4.314;2022-10-18T04:40:09;15.20;;;13.02;;
17714;SDS011;8977;50.902;4.314;2022-10-18T04:42:36;16.00;;;13.52;;
17714;SDS011;8977;50.902;4.314;2022-10-18T04:45:04;18.35;;;13.65;;
17714;SDS011;8977;50.902;4.314;2022-10-18T04:47:31;15.15;;;13.57;;
17714;SDS011;8977;50.902;4.314;2022-10-18T04:49:58;17.23;;;13.80;;
17714;SDS011;8977;50.902;4.314;2022-10-18T04:52:26;15.55;;;12.43;;
17714;SDS011;8977;50.902;4.314;2022-10-18T04:54:53;15.20;;;13.60;;
17714;SDS011;8977;50.902;4.314;2022-10-18T04:57:20;16.83;;;13.57;;
17714;SDS011;8977;50.902;4.314;2022-10-18T04:59:47;15.68;;;13.20;;
17714;SDS011;8977;50.902;4.314;2022-10-18T05:02:13;15.15;;;12.70;;
17714;SDS011;8977;50.902;4.314;2022-10-18T05:04:40;18.05;;;13.43;;
17714;SDS011;8977;50.902;4.314;2022-10-18T05:07:07;17.85;;;13.75;;
17714;SDS011;8977;50.902;4.314;2022-10-18T05:09:35;16.90;;;13.10;;
17714;SDS011;8977;50.902;4.314;2022-10-18T05:12:02;17.05;;;13.43;;
17714;SDS011;8977;50.902;4.314;2022-10-18T05:14:29;18.35;;;13.45;;
17714;SDS011;8977;50.902;4.314;2022-10-18T05:16:56;16.17;;;13.82;;
17714;SDS011;8977;50.902;4.314;2022-10-18T05:19:23;18.25;;;13.50;;
17714;SDS011;8977;50.902;4.314;2022-10-18T05:21:50;17.67;;;14.70;;
17714;SDS011;8977;50.902;4.314;2022-10-18T05:24:17;19.58;;;13.90;;
17714;SDS011;8977;50.902;4.314;2022-10-18T05:26:45;17.38;;;13.77;;
17714;SDS011;8977;50.902;4.314;2022-10-18T05:29:13;17.60;;;13.68;;
17714;SDS011;8977;50.902;4.314;2022-10-18T05:31:40;17.80;;;13.50;;
17714;SDS011;8977;50.902;4.314;2022-10-18T05:34:07;16.55;;;14.70;;
17714;SDS011;8977;50.902;4.314;2022-10-18T05:36:33;16.85;;;13.43;;
17714;SDS011;8977;50.902;4.314;2022-10-18T05:39:01;16.25;;;13.30;;
17714;SDS011;8977;50.902;4.314;2022-10-18T05:41:28;15.60;;;12.95;;
17714;SDS011;8977;50.902;4.314;2022-10-18T05:43:56;17.27;;;14.05;;
17714;SDS011;8977;50.902;4.314;2022-10-18T05:46:23;16.40;;;14.02;;
17714;SDS011;8977;50.902;4.314;2022-10-18T05:48:50;16.33;;;13.57;;
17714;SDS011;8977;50.902;4.314;2022-10-18T05:51:18;16.63;;;13.93;;
17714;SDS011;8977;50.902;4.314;2022-10-18T05:53:44;16.17;;;13.30;;
17714;SDS011;8977;50.902;4.314;2022-10-18T05:56:11;14.98;;;12.65;;
17714;SDS011;8977;50.902;4.314;2022-10-18T05:58:38;17.27;;;14.05;;
17714;SDS011;8977;50.902;4.314;2022-10-18T06:01:07;17.77;;;14.10;;
17714;SDS011;8977;50.902;4.314;2022-10-18T06:03:35;16.23;;;12.88;;
17714;SDS011;8977;50.902;4.314;2022-10-18T06:06:02;16.05;;;13.68;;
17714;SDS011;8977;50.902;4.314;2022-10-18T06:08:30;15.68;;;13.55;;
17714;SDS011;8977;50.902;4.314;2022-10-18T06:10:58;17.10;;;13.40;;
17714;SDS011;8977;50.902;4.314;2022-10-18T06:13:25;17.15;;;13.75;;
17714;SDS011;8977;50.902;4.314;2022-10-18T06:15:54;16.42;;;13.50;;
17714;SDS011;8977;50.902;4.314;2022-10-18T06:18:22;16.73;;;14.02;;
17714;SDS011;8977;50.902;4.314;2022-10-18T06:20:54;16.40;;;12.98;;
17714;SDS011;8977;50.902;4.314;2022-10-18T06:23:22;15.88;;;12.77;;
17714;SDS011;8977;50.902;4.314;2022-10-18T06:25:48;16.92;;;13.60;;
17714;SDS011;8977;50.902;4.314;2022-10-18T06:28:15;14.70;;;12.83;;
17714;SDS011;8977;50.902;4.314;2022-10-18T06:30:42;18.08;;;13.48;;
17714;SDS011;8977;50.902;4.314;2022-10-18T06:33:09;17.40;;;13.30;;
17714;SDS011;8977;50.902;4.314;2022-10-18T06:35:38;16.37;;;12.80;;
17714;SDS011;8977;50.902;4.314;2022-10-18T06:38:05;15.70;;;12.47;;
17714;SDS011;8977;50.902;4.314;2022-10-18T06:40:31;17.47;;;13.50;;
17714;SDS011;8977;50.902;4.314;2022-10-18T06:43:02;18.08;;;14.57;;
17714;SDS011;8977;50.902;4.314;2022-10-18T06:45:30;19.00;;;13.43;;
17714;SDS011;8977;50.902;4.314;2022-10-18T06:47:57;18.40;;;14.60;;
17714;SDS011;8977;50.902;4.314;2022-10-18T06:50:24;19.02;;;15.23;;
17714;SDS011;8977;50.902;4.314;2022-10-18T06:52:52;15.40;;;13.67;;
17714;SDS011;8977;50.902;4.314;2022-10-18T06:55:18;15.95;;;13.40;;
17714;SDS011;8977;50.902;4.314;2022-10-18T06:57:45;15.27;;;13.67;;
17714;SDS011;8977;50.902;4.314;2022-10-18T07:00:13;19.52;;;14.10;;
17714;SDS011;8977;50.902;4.314;2022-10-18T07:02:40;20.20;;;14.77;;
17714;SDS011;8977;50.902;4.314;2022-10-18T07:05:07;17.52;;;14.45;;
17714;SDS011;8977;50.902;4.314;2022-10-18T07:07:35;19.73;;;14.25;;
17714;SDS011;8977;50.902;4.314;2022-10-18T07:10:03;18.30;;;14.13;;
17714;SDS011;8977;50.902;4.314;2022-10-18T07:12:31;16.10;;;14.23;;
17714;SDS011;8977;50.902;4.314;2022-10-18T07:14:58;16.08;;;13.38;;
17714;SDS011;8977;50.902;4.314;2022-10-18T07:17:25;17.20;;;13.07;;
17714;SDS011;8977;50.902;4.314;2022-10-18T07:19:52;18.50;;;14.23;;
17714;SDS011;8977;50.902;4.314;2022-10-18T07:22:19;16.60;;;13.60;;
17714;SDS011;8977;50.902;4.314;2022-10-18T07:24:46;19.55;;;14.68;;
17714;SDS011;8977;50.902;4.314;2022-10-18T07:27:14;17.80;;;14.63;;
17714;SDS011;8977;50.902;4.314;2022-10-18T07:29:41;15.65;;;14.05;;
17714;SDS011;8977;50.902;4.314;2022-10-18T07:32:08;17.92;;;15.45;;
17714;SDS011;8977;50.902;4.314;2022-10-18T07:34:34;22.48;;;15.48;;
17714;SDS011;8977;50.902;4.314;2022-10-18T07:37:01;17.40;;;14.73;;
17714;SDS011;8977;50.902;4.314;2022-10-18T07:39:28;18.47;;;14.90;;
17714;SDS011;8977;50.902;4.314;2022-10-18T07:41:55;18.63;;;15.00;;
17714;SDS011;8977;50.902;4.314;2022-10-18T07:44:23;18.65;;;14.65;;
17714;SDS011;8977;50.902;4.314;2022-10-18T07:46:50;16.67;;;14.50;;
17714;SDS011;8977;50.902;4.314;2022-10-18T07:49:17;18.48;;;14.57;;
17714;SDS011;8977;50.902;4.314;2022-10-18T07:51:44;16.73;;;14.57;;
17714;SDS011;8977;50.902;4.314;2022-10-18T07:54:11;17.33;;;14.95;;
17714;SDS011;8977;50.902;4.314;2022-10-18T07:56:37;18.10;;;15.02;;
17714;SDS011;8977;50.902;4.314;2022-10-18T07:59:04;22.03;;;15.57;;
17714;SDS011;8977;50.902;4.314;2022-10-18T08:01:32;17.17;;;14.60;;
17714;SDS011;8977;50.902;4.314;2022-10-18T08:03:59;21.23;;;14.70;;
17714;SDS011;8977;50.902;4.314;2022-10-18T08:06:26;20.25;;;14.52;;
17714;SDS011;8977;50.902;4.314;2022-10-18T08:08:53;20.90;;;15.05;;
17714;SDS011;8977;50.902;4.314;2022-10-18T08:11:20;20.00;;;13.77;;
17714;SDS011;8977;50.902;4.314;2022-10-18T08:13:48;19.65;;;13.45;;
17714;SDS011;8977;50.902;4.314;2022-10-18T08:16:15;20.42;;;14.40;;
17714;SDS011;8977;50.902;4.314;2022-10-18T08:18:45;18.00;;;13.00;;
17714;SDS011;8977;50.902;4.314;2022-10-18T08:21:13;21.67;;;11.82;;
17714;SDS011;8977;50.902;4.314;2022-10-18T08:23:40;16.58;;;10.07;;
17714;SDS011;8977;50.902;4.314;2022-10-18T08:26:08;14.93;;;10.40;;
17714;SDS011;8977;50.902;4.314;2022-10-18T08:28:37;14.85;;;9.00;;
17714;SDS011;8977;50.902;4.314;2022-10-18T08:31:05;15.75;;;8.35;;
17714;SDS011;8977;50.902;4.314;2022-10-18T08:33:33;13.43;;;7.03;;
17714;SDS011;8977;50.902;4.314;2022-10-18T08:36:01;13.52;;;6.40;;
17714;SDS011;8977;50.902;4.314;2022-10-18T08:38:30;13.27;;;5.97;;
17714;SDS011;8977;50.902;4.314;2022-10-18T08:40:58;12.77;;;5.32;;
17714;SDS011;8977;50.902;4.314;2022-10-18T08:43:27;12.98;;;5.53;;
17714;SDS011;8977;50.902;4.314;2022-10-18T08:45:58;12.45;;;6.15;;
17714;SDS011;8977;50.902;4.314;2022-10-18T08:48:28;14.95;;;5.55;;
17714;SDS011;8977;50.902;4.314;2022-10-18T08:51:02;12.88;;;5.65;;
17714;SDS011;8977;50.902;4.314;2022-10-18T08:53:31;17.63;;;6.72;;
17714;SDS011;8977;50.902;4.314;2022-10-18T08:56:05;16.33;;;6.00;;
17714;SDS011;8977;50.902;4.314;2022-10-18T08:58:38;16.13;;;7.03;;
17714;SDS011;8977;50.902;4.314;2022-10-18T09:01:10;14.32;;;7.35;;
17714;SDS011;8977;50.902;4.314;2022-10-18T09:03:57;14.75;;;9.68;;
17714;SDS011;8977;50.902;4.314;2022-10-18T09:06:40;19.55;;;12.80;;
17714;SDS011;8977;50.902;4.314;2022-10-18T09:09:19;18.33;;;12.25;;
17714;SDS011;8977;50.902;4.314;2022-10-18T09:11:56;15.23;;;10.15;;
17714;SDS011;8977;50.902;4.314;2022-10-18T09:17:27;18.23;;;11.77;;
17714;SDS011;8977;50.902;4.314;2022-10-18T09:20:02;15.57;;;12.00;;
17714;SDS011;8977;50.902;4.314;2022-10-18T09:22:42;18.00;;;12.38;;
17714;SDS011;8977;50.902;4.314;2022-10-18T09:25:17;15.82;;;11.73;;
17714;SDS011;8977;50.902;4.314;2022-10-18T09:27:49;20.50;;;12.82;;
17714;SDS011;8977;50.902;4.314;2022-10-18T09:33:15;19.73;;;11.60;;
17714;SDS011;8977;50.902;4.314;2022-10-18T09:35:51;17.38;;;12.40;;
17714;SDS011;8977;50.902;4.314;2022-10-18T09:38:22;24.13;;;13.95;;
17714;SDS011;8977;50.902;4.314;2022-10-18T09:40:55;19.48;;;13.07;;
17714;SDS011;8977;50.902;4.314;2022-10-18T09:43:29;19.98;;;12.40;;
17714;SDS011;8977;50.902;4.314;2022-10-18T09:46:04;23.25;;;13.40;;
17714;SDS011;8977;50.902;4.314;2022-10-18T09:48:34;18.25;;;10.95;;
17714;SDS011;8977;50.902;4.314;2022-10-18T10:58:59;11.33;;;4.70;;
17714;SDS011;8977;50.902;4.314;2022-10-18T11:01:33;8.97;;;3.93;;
17714;SDS011;8977;50.902;4.314;2022-10-18T11:04:01;8.83;;;3.20;;
17714;SDS011;8977;50.902;4.314;2022-10-18T11:06:49;9.83;;;3.27;;
17714;SDS011;8977;50.902;4.314;2022-10-18T11:09:28;7.23;;;3.13;;
17714;SDS011;8977;50.902;4.314;2022-10-18T11:12:02;16.02;;;4.63;;
17714;SDS011;8977;50.902;4.314;2022-10-18T11:14:49;8.40;;;2.80;;
17714;SDS011;8977;50.902;4.314;2022-10-18T11:17:22;8.48;;;3.00;;
17714;SDS011;8977;50.902;4.314;2022-10-18T11:19:58;9.13;;;2.88;;
17714;SDS011;8977;50.902;4.314;2022-10-18T11:22:36;12.35;;;3.13;;
17714;SDS011;8977;50.902;4.314;2022-10-18T11:25:08;7.85;;;2.08;;
17714;SDS011;8977;50.902;4.314;2022-10-18T11:27:40;13.73;;;3.25;;
17714;SDS011;8977;50.902;4.314;2022-10-18T11:33:06;4.95;;;1.88;;
17714;SDS011;8977;50.902;4.314;2022-10-18T11:35:45;5.90;;;1.98;;
17714;SDS011;8977;50.902;4.314;2022-10-18T11:38:28;9.27;;;2.42;;
17714;SDS011;8977;50.902;4.314;2022-10-18T11:43:56;10.45;;;2.05;;
17714;SDS011;8977;50.902;4.314;2022-10-18T11:46:30;7.88;;;1.95;;
17714;SDS011;8977;50.902;4.314;2022-10-18T11:49:16;6.60;;;2.15;;
17714;SDS011;8977;50.902;4.314;2022-10-18T11:52:06;7.25;;;2.10;;
17714;SDS011;8977;50.902;4.314;2022-10-18T11:54:40;7.82;;;2.10;;
17714;SDS011;8977;50.902;4.314;2022-10-18T11:57:32;14.25;;;2.92;;
17714;SDS011;8977;50.902;4.314;2022-10-18T12:00:14;12.10;;;2.70;;
17714;SDS011;8977;50.902;4.314;2022-10-18T12:05:55;11.73;;;2.58;;
17714;SDS011;8977;50.902;4.314;2022-10-18T12:08:27;11.60;;;2.38;;
17714;SDS011;8977;50.902;4.314;2022-10-18T12:10:59;7.53;;;2.00;;
17714;SDS011;8977;50.902;4.314;2022-10-18T12:13:33;7.28;;;1.85;;
17714;SDS011;8977;50.902;4.314;2022-10-18T12:16:04;8.02;;;2.30;;
17714;SDS011;8977;50.902;4.314;2022-10-18T12:18:34;7.40;;;1.60;;
17714;SDS011;8977;50.902;4.314;2022-10-18T12:21:07;8.05;;;1.90;;
17714;SDS011;8977;50.902;4.314;2022-10-18T12:23:37;6.10;;;1.70;;
17714;SDS011;8977;50.902;4.314;2022-10-18T12:26:10;8.75;;;1.90;;
17714;SDS011;8977;50.902;4.314;2022-10-18T12:28:40;7.30;;;2.00;;
17714;SDS011;8977;50.902;4.314;2022-10-18T12:31:15;10.95;;;2.65;;
17714;SDS011;8977;50.902;4.314;2022-10-18T12:33:48;6.45;;;1.98;;
17714;SDS011;8977;50.902;4.314;2022-10-18T12:36:23;8.10;;;1.80;;
17714;SDS011;8977;50.902;4.314;2022-10-18T12:39:09;11.32;;;2.50;;
17714;SDS011;8977;50.902;4.314;2022-10-18T12:41:41;9.05;;;2.08;;
17714;SDS011;8977;50.902;4.314;2022-10-18T12:44:17;9.02;;;2.30;;
17714;SDS011;8977;50.902;4.314;2022-10-18T12:46:45;10.18;;;2.00;;
17714;SDS011;8977;50.902;4.314;2022-10-18T12:49:19;5.20;;;1.85;;
17714;SDS011;8977;50.902;4.314;2022-10-18T12:51:50;7.18;;;1.80;;
17714;SDS011;8977;50.902;4.314;2022-10-18T12:54:21;8.63;;;1.75;;
17714;SDS011;8977;50.902;4.314;2022-10-18T12:56:50;3.92;;;1.50;;
17714;SDS011;8977;50.902;4.314;2022-10-18T13:02:28;6.97;;;2.13;;
17714;SDS011;8977;50.902;4.314;2022-10-18T13:04:57;7.28;;;1.85;;
17714;SDS011;8977;50.902;4.314;2022-10-18T13:07:32;4.85;;;1.88;;
17714;SDS011;8977;50.902;4.314;2022-10-18T13:13:26;14.88;;;3.35;;
17714;SDS011;8977;50.902;4.314;2022-10-18T13:16:01;8.93;;;2.15;;
17714;SDS011;8977;50.902;4.314;2022-10-18T13:18:34;6.80;;;1.65;;
17714;SDS011;8977;50.902;4.314;2022-10-18T13:21:13;7.35;;;1.90;;
17714;SDS011;8977;50.902;4.314;2022-10-18T13:23:49;6.63;;;1.88;;
17714;SDS011;8977;50.902;4.314;2022-10-18T13:26:41;7.50;;;1.90;;
17714;SDS011;8977;50.902;4.314;2022-10-18T13:29:21;6.55;;;2.17;;
17714;SDS011;8977;50.902;4.314;2022-10-18T13:32:00;8.90;;;2.20;;
17714;SDS011;8977;50.902;4.314;2022-10-18T13:34:33;10.57;;;2.35;;
17714;SDS011;8977;50.902;4.314;2022-10-18T13:37:04;5.57;;;1.83;;
17714;SDS011;8977;50.902;4.314;2022-10-18T13:39:43;12.20;;;2.83;;
17714;SDS011;8977;50.902;4.314;2022-10-18T13:42:18;6.93;;;2.30;;
17714;SDS011;8977;50.902;4.314;2022-10-18T13:50:58;5.63;;;1.98;;
17714;SDS011;8977;50.902;4.314;2022-10-18T13:53:42;7.43;;;1.90;;
17714;SDS011;8977;50.902;4.314;2022-10-18T13:59:29;6.53;;;1.85;;
17714;SDS011;8977;50.902;4.314;2022-10-18T14:02:15;7.90;;;2.10;;
17714;SDS011;8977;50.902;4.314;2022-10-18T14:05:03;7.03;;;1.77;;
17714;SDS011;8977;50.902;4.314;2022-10-18T14:07:47;9.60;;;2.35;;
17714;SDS011;8977;50.902;4.314;2022-10-18T14:10:19;4.40;;;1.80;;
17714;SDS011;8977;50.902;4.314;2022-10-18T14:12:51;6.97;;;2.10;;
17714;SDS011;8977;50.902;4.314;2022-10-18T14:15:23;4.38;;;1.65;;
17714;SDS011;8977;50.902;4.314;2022-10-18T14:17:51;8.68;;;2.15;;
17714;SDS011;8977;50.902;4.314;2022-10-18T14:20:24;10.40;;;2.20;;
17714;SDS011;8977;50.902;4.314;2022-10-18T14:22:55;6.03;;;1.67;;
17714;SDS011;8977;50.902;4.314;2022-10-18T14:25:29;5.07;;;1.92;;
17714;SDS011;8977;50.902;4.314;2022-10-18T14:28:03;5.30;;;1.75;;
17714;SDS011;8977;50.902;4.314;2022-10-18T14:30:31;9.02;;;2.10;;
17714;SDS011;8977;50.902;4.314;2022-10-18T14:32:59;8.18;;;1.90;;
17714;SDS011;8977;50.902;4.314;2022-10-18T14:35:27;4.32;;;1.60;;
17714;SDS011;8977;50.902;4.314;2022-10-18T14:37:56;8.60;;;2.63;;
17714;SDS011;8977;50.902;4.314;2022-10-18T14:40:32;6.20;;;1.95;;
17714;SDS011;8977;50.902;4.314;2022-10-18T14:43:02;5.80;;;1.77;;
17714;SDS011;8977;50.902;4.314;2022-10-18T14:45:31;5.63;;;1.63;;
17714;SDS011;8977;50.902;4.314;2022-10-18T14:48:05;7.10;;;2.10;;
17714;SDS011;8977;50.902;4.314;2022-10-18T14:50:39;5.78;;;1.70;;
17714;SDS011;8977;50.902;4.314;2022-10-18T14:53:10;8.70;;;2.05;;
17714;SDS011;8977;50.902;4.314;2022-10-18T14:55:41;6.78;;;2.22;;
17714;SDS011;8977;50.902;4.314;2022-10-18T14:58:10;4.93;;;1.58;;
17714;SDS011;8977;50.902;4.314;2022-10-18T15:00:40;5.03;;;1.60;;
17714;SDS011;8977;50.902;4.314;2022-10-18T15:03:09;8.32;;;1.90;;
17714;SDS011;8977;50.902;4.314;2022-10-18T15:05:50;5.35;;;1.90;;
17714;SDS011;8977;50.902;4.314;2022-10-18T15:08:18;5.07;;;1.88;;
17714;SDS011;8977;50.902;4.314;2022-10-18T15:10:48;4.72;;;1.50;;
17714;SDS011;8977;50.902;4.314;2022-10-18T15:13:15;7.18;;;1.83;;
17714;SDS011;8977;50.902;4.314;2022-10-18T15:15:43;5.65;;;1.85;;
17714;SDS011;8977;50.902;4.314;2022-10-18T15:18:13;7.63;;;2.17;;
17714;SDS011;8977;50.902;4.314;2022-10-18T15:20:45;6.53;;;1.90;;
17714;SDS011;8977;50.902;4.314;2022-10-18T15:23:31;6.80;;;1.65;;
17714;SDS011;8977;50.902;4.314;2022-10-18T15:26:00;6.32;;;1.63;;
17714;SDS011;8977;50.902;4.314;2022-10-18T15:28:30;5.10;;;2.00;;
17714;SDS011;8977;50.902;4.314;2022-10-18T15:30:59;5.20;;;1.85;;
17714;SDS011;8977;50.902;4.314;2022-10-18T15:33:27;9.30;;;2.42;;
17714;SDS011;8977;50.902;4.314;2022-10-18T15:36:06;6.97;;;1.85;;
17714;SDS011;8977;50.902;4.314;2022-10-18T15:38:34;7.38;;;1.65;;
17714;SDS011;8977;50.902;4.314;2022-10-18T15:41:02;5.55;;;1.75;;
17714;SDS011;8977;50.902;4.314;2022-10-18T15:44:06;7.93;;;1.73;;
17714;SDS011;8977;50.902;4.314;2022-10-18T15:46:36;10.07;;;2.05;;
17714;SDS011;8977;50.902;4.314;2022-10-18T15:49:27;5.85;;;1.70;;
17714;SDS011;8977;50.902;4.314;2022-10-18T15:52:28;8.55;;;2.13;;
17714;SDS011;8977;50.902;4.314;2022-10-18T15:55:01;7.18;;;1.80;;
17714;SDS011;8977;50.902;4.314;2022-10-18T15:57:49;8.05;;;1.85;;
17714;SDS011;8977;50.902;4.314;2022-10-18T16:00:17;8.38;;;2.22;;
17714;SDS011;8977;50.902;4.314;2022-10-18T16:02:45;7.50;;;2.15;;
17714;SDS011;8977;50.902;4.314;2022-10-18T16:05:12;6.55;;;1.90;;
17714;SDS011;8977;50.902;4.314;2022-10-18T16:07:40;10.52;;;2.10;;
17714;SDS011;8977;50.902;4.314;2022-10-18T16:10:10;10.70;;;2.50;;
17714;SDS011;8977;50.902;4.314;2022-10-18T16:12:38;9.35;;;2.00;;
17714;SDS011;8977;50.902;4.314;2022-10-18T16:15:06;10.52;;;2.70;;
17714;SDS011;8977;50.902;4.314;2022-10-18T16:17:34;10.45;;;1.83;;
17714;SDS011;8977;50.902;4.314;2022-10-18T16:20:00;9.65;;;2.60;;
17714;SDS011;8977;50.902;4.314;2022-10-18T16:22:27;10.50;;;2.47;;
17714;SDS011;8977;50.902;4.314;2022-10-18T16:24:54;6.35;;;2.25;;
17714;SDS011;8977;50.902;4.314;2022-10-18T16:27:21;5.75;;;2.00;;
17714;SDS011;8977;50.902;4.314;2022-10-18T16:29:49;8.23;;;2.35;;
17714;SDS011;8977;50.902;4.314;2022-10-18T16:32:17;7.22;;;2.05;;
17714;SDS011;8977;50.902;4.314;2022-10-18T16:34:43;6.10;;;2.10;;
17714;SDS011;8977;50.902;4.314;2022-10-18T16:37:10;9.30;;;2.30;;
17714;SDS011;8977;50.902;4.314;2022-10-18T16:39:37;7.43;;;1.90;;
17714;SDS011;8977;50.902;4.314;2022-10-18T16:42:04;12.18;;;2.85;;
17714;SDS011;8977;50.902;4.314;2022-10-18T16:44:30;7.18;;;2.33;;
17714;SDS011;8977;50.902;4.314;2022-10-18T16:46:57;10.00;;;2.30;;
17714;SDS011;8977;50.902;4.314;2022-10-18T16:49:25;13.35;;;2.63;;
17714;SDS011;8977;50.902;4.314;2022-10-18T16:51:52;8.88;;;2.22;;
17714;SDS011;8977;50.902;4.314;2022-10-18T16:54:20;8.30;;;2.80;;